Friday, February 23, 2018, 7:47 PM GMT
Back to Local

CWSS, St. Stephen, N. B.

Location: , , Canada Lat: 45.217
Local Time: 7:47 PM GMT (19:47 GMT) Lon: -67.25
Time Zone: GMT Elev: 85 ft

Show me the last for .
Show Decoded

2018-02-23 19:00 METAR CWSS 231900Z AUTO 19005KT M01/M14 RMK AO1 SOG 08 8041 SLP349 T10101137 =
2018-02-23 18:00 METAR CWSS 231800Z AUTO 16003KT M01/M13 RMK AO1 PRESFR SOG 08 8043 SLP360
                 T10081128 =
2018-02-23 17:00 METAR CWSS 231700Z AUTO 18005KT M02/M13 RMK AO1 SOG 08 8029 SLP381 T10161134 =
2018-02-23 16:00 METAR CWSS 231600Z AUTO 10004KT M02/M14 RMK AO1 SOG 08 8025 SLP390 T10231138 =
2018-02-23 15:00 METAR CWSS 231500Z AUTO 06004KT M04/M14 RMK AO1 SOG 08 8013 SLP403 T10381138 =
2018-02-23 14:00 METAR CWSS 231400Z AUTO 07001KT M05/M13 RMK AO1 SOG 08 8003 SLP410 T10461129 =
2018-02-23 13:00 METAR CWSS 231300Z AUTO 00000KT M07/M14 RMK AO1 SOG 08 0004 SLP415 T10661135 =
2018-02-23 12:00 METAR CWSS 231200Z AUTO 32001KT M10/M13 RMK AO1 SOG 09 1010 SLP416 T10971129 =
2018-02-23 11:00 METAR CWSS 231100Z AUTO 00000KT M11/M14 RMK AO1 SOG 08 3006 SLP413 T11111135 =
2018-02-23 10:00 METAR CWSS 231000Z AUTO 32002KT M10/M13 RMK AO1 SOG 09 3005 SLP411 T11031128 =
2018-02-23 09:00 METAR CWSS 230900Z AUTO 33001KT M10/M12 RMK AO1 SOG 09 0005 SLP406 T11001124 =
2018-02-23 08:00 METAR CWSS 230800Z AUTO 00000KT M10/M12 RMK AO1 SOG 09 1014 SLP407 T10951124 =
2018-02-23 07:00 METAR CWSS 230700Z AUTO 00000KT M09/M11 RMK AO1 SOG 08 1019 SLP406 T10871114 =
2018-02-23 06:00 METAR CWSS 230600Z AUTO 00000KT M09/M10 RMK AO1 SOG 09 3015 SLP401 T10891102
                 50002 =
2018-02-23 05:00 METAR CWSS 230500Z AUTO 00000KT M08/M10 RMK AO1 SOG 08 3008 SLP393 T10821101
                 50002 =
2018-02-23 04:00 METAR CWSS 230400Z AUTO 29001KT M07/M10 RMK AO1 SOG 08 1005 SLP387 T10731100
                 50002 =
2018-02-23 03:00 METAR CWSS 230300Z AUTO 00000KT M06/M10 RMK AO1 SOG 08 2005 SLP386 T10621096
                 50002 =
2018-02-23 02:00 METAR CWSS 230200Z AUTO 36002KT M05/M09 RMK AO1 2PAST HR SOG 08 1011 SLP385
                 P0001 T10481092 50002 =
2018-02-23 01:00 METAR CWSS 230100Z AUTO 30001KT M03/M10 RMK AO1 SOG 08 1011 SLP382 T10321098 =
2018-02-23 00:00 METAR CWSS 230000Z AUTO 34001KT M03/M10 RMK AO1 SOG 09 3011 SLP381 T10261101 =
2018-02-22 23:00 METAR CWSS 222300Z AUTO 00000KT M02/M12 RMK AO1 SOG 09 3005 SLP374 T10221120 =
2018-02-22 22:00 METAR CWSS 222200Z AUTO 33002KT M02/M12 RMK AO1 SOG 09 1006 SLP371 T10201120 =
2018-02-22 21:00 METAR CWSS 222100Z AUTO 31004KT M02/M14 RMK AO1 SOG 09 3001 SLP370 T10191135 =
2018-02-22 20:00 METAR CWSS 222000Z AUTO 30007KT M02/M14 RMK AO1 SOG 09 5004 SLP369 T10191139 =

Support USWX by starting your Amazon purchase here.